Time;durP1;ratioP1;P1;durP2;ratioP2;P2;SDS_P1;SDS_P2;PMS_P1;PMS_P2;Temp;Humidity;BMP_temperature;BMP_pressure;BME280_temperature;BME280_humidity;BME280_pressure;Samples;Min_cycle;Max_cycle;Signal;HPM_P1;HPM_P2
2021/04/22 00:03:51;;;;;;;3.87;1.80;;;;;;;8.93;54.05;100394.52;5069465;56;1134750;-72
2021/04/22 00:08:57;;;;;;;4.13;0.97;;;;;;;8.75;53.29;100400.64;5069552;56;1134636;-72
2021/04/22 00:14:03;;;;;;;8.20;2.27;;;;;;;8.52;48.29;100391.39;5069853;56;1134638;-73
2021/04/22 00:19:09;;;;;;;9.15;1.30;;;;;;;8.34;47.12;100386.94;5069591;56;1134758;-73
2021/04/22 00:24:15;;;;;;;8.00;1.87;;;;;;;8.19;47.13;100391.94;5069714;56;1134918;-73
2021/04/22 00:29:21;;;;;;;14.53;2.10;;;;;;;8.02;47.47;100402.31;5072589;56;1134287;-72
2021/04/22 00:34:26;;;;;;;8.00;1.90;;;;;;;7.90;48.05;100405.80;5072617;56;1136634;-72
2021/04/22 00:39:32;;;;;;;9.23;1.90;;;;;;;7.72;48.47;100411.36;5080605;56;1134446;-72
2021/04/22 00:44:38;;;;;;;6.17;1.80;;;;;;;7.58;48.81;100422.45;5084817;56;1134380;-72
2021/04/22 00:49:44;;;;;;;7.73;1.63;;;;;;;7.47;49.82;100427.59;5084834;56;1134279;-72
2021/04/22 00:54:50;;;;;;;9.08;2.15;;;;;;;7.34;50.60;100431.00;5084743;56;1134644;-72
2021/04/22 00:59:56;;;;;;;19.10;2.37;;;;;;;7.25;50.98;100432.09;5084852;56;1134274;-72
2021/04/22 01:05:03;;;;;;;10.93;1.57;;;;;;;7.19;51.43;100433.31;5085152;56;1136422;-72
2021/04/22 01:10:12;;;;;;;8.40;1.87;;;;;;;7.11;51.74;100442.19;5084944;56;1136483;-72
2021/04/22 01:15:25;;;;;;;10.13;1.77;;;;;;;7.06;51.85;100431.95;5085176;56;1134345;-73
2021/04/22 01:20:37;;;;;;;8.35;2.33;;;;;;;7.00;51.64;100447.30;5085000;56;1136690;-73
2021/04/22 01:25:47;;;;;;;9.83;1.50;;;;;;;6.97;52.00;100445.70;5085181;56;1134558;-74
2021/04/22 01:30:56;;;;;;;5.77;1.00;;;;;;;6.92;52.10;100453.03;5084821;56;1134585;-73
2021/04/22 01:36:02;;;;;;;9.27;1.50;;;;;;;6.91;52.63;100453.97;5065376;56;1134801;-73
2021/04/22 01:41:08;;;;;;;14.73;1.67;;;;;;;6.86;52.27;100457.38;5084846;56;1134572;-73
2021/04/22 01:46:14;;;;;;;12.95;1.75;;;;;;;6.80;51.40;100461.70;5084546;56;1136609;-72
2021/04/22 01:51:21;;;;;;;9.00;2.07;;;;;;;6.74;51.34;100458.59;5084934;56;1136775;-72
2021/04/22 01:56:26;;;;;;;20.37;2.00;;;;;;;6.64;51.14;100459.19;5085134;55;1134307;-74
2021/04/22 02:01:32;;;;;;;10.80;2.20;;;;;;;6.59;51.59;100470.44;5084403;56;1136704;-72
2021/04/22 02:06:37;;;;;;;13.70;2.30;;;;;;;6.51;51.36;100470.55;5084423;56;1136451;-75
2021/04/22 02:11:43;;;;;;;15.33;2.60;;;;;;;6.46;51.48;100473.45;5084325;56;1136571;-71
2021/04/22 02:16:48;;;;;;;12.00;2.10;;;;;;;6.46;52.24;100465.57;5084297;56;1136807;-75
2021/04/22 02:21:54;;;;;;;14.50;3.20;;;;;;;6.43;51.64;100461.81;5084313;56;1136778;-72
2021/04/22 02:27:00;;;;;;;6.73;1.67;;;;;;;6.39;52.11;100460.33;5084826;56;1136677;-72
2021/04/22 02:32:06;;;;;;;10.10;1.80;;;;;;;6.38;51.99;100461.73;5085187;56;1134391;-73
2021/04/22 02:37:12;;;;;;;12.07;2.27;;;;;;;6.30;51.92;100461.72;5085001;56;1136577;-71
2021/04/22 02:42:17;;;;;;;19.48;3.40;;;;;;;6.25;52.02;100461.17;5084756;56;1137031;-74
2021/04/22 02:47:23;;;;;;;15.60;2.17;;;;;;;6.20;52.17;100471.11;5084622;56;1136733;-72
2021/04/22 02:52:28;;;;;;;13.90;2.90;;;;;;;6.09;51.93;100459.09;5084830;56;1136639;-71
2021/04/22 02:57:35;;;;;;;13.67;2.20;;;;;;;5.96;52.32;100466.83;5084857;56;1136663;-72
2021/04/22 03:02:40;;;;;;;16.80;2.00;;;;;;;5.87;52.53;100473.08;5084920;56;1136695;-72
2021/04/22 03:07:47;;;;;;;11.50;2.37;;;;;;;5.77;53.12;100471.47;5084897;56;1136634;-73
2021/04/22 03:12:53;;;;;;;11.90;2.77;;;;;;;5.64;53.21;100477.05;5084974;56;1136673;-72
2021/04/22 03:17:59;;;;;;;18.87;4.70;;;;;;;5.53;53.09;100477.65;5084913;56;1136982;-73
2021/04/22 03:23:05;;;;;;;5.33;1.97;;;;;;;5.48;53.32;100480.18;5085048;56;1136677;-74
2021/04/22 03:28:11;;;;;;;13.53;2.87;;;;;;;5.39;52.97;100480.22;5084861;56;1134626;-73
2021/04/22 03:33:17;;;;;;;9.60;2.02;;;;;;;5.34;53.01;100486.21;5084549;56;1136848;-72
2021/04/22 03:38:22;;;;;;;11.63;2.23;;;;;;;5.32;53.02;100489.38;5084764;56;1134728;-71
2021/04/22 03:43:28;;;;;;;9.97;2.00;;;;;;;5.27;52.34;100488.78;5079031;56;1136691;-73
2021/04/22 03:48:34;;;;;;;14.93;2.93;;;;;;;5.18;52.99;100490.16;5072304;56;1134599;-74
2021/04/22 03:53:40;;;;;;;17.17;2.37;;;;;;;5.13;52.88;100490.02;5072087;56;1136701;-71
2021/04/22 03:58:45;;;;;;;12.23;2.70;;;;;;;5.06;52.91;100490.81;5072346;56;1136420;-72
2021/04/22 04:03:51;;;;;;;21.77;2.67;;;;;;;5.00;53.24;100496.41;5072268;56;1136865;-71
2021/04/22 04:08:56;;;;;;;18.93;3.93;;;;;;;4.98;53.36;100497.42;5049191;57;1136978;-73
2021/04/22 04:14:02;;;;;;;14.77;3.50;;;;;;;4.95;53.52;100496.66;5067699;56;1136878;-74
2021/04/22 04:19:08;;;;;;;19.23;3.07;;;;;;;4.97;53.68;100490.48;5061335;56;1142214;-71
2021/04/22 04:24:14;;;;;;;20.20;3.15;;;;;;;4.95;53.94;100497.12;5057130;56;1136852;-71
2021/04/22 04:29:19;;;;;;;21.23;3.17;;;;;;;4.92;54.26;100497.28;5070412;57;1136666;-71
2021/04/22 04:34:25;;;;;;;20.23;3.37;;;;;;;4.90;54.71;100506.53;5061939;57;1136942;-72
2021/04/22 04:39:31;;;;;;;22.03;3.30;;;;;;;4.89;55.25;100504.84;5002030;57;1136740;-76
2021/04/22 04:44:38;;;;;;;6.27;2.13;;;;;;;4.90;55.73;100503.91;5055312;57;1136833;-71
2021/04/22 04:49:43;;;;;;;16.47;2.13;;;;;;;4.89;56.76;100514.47;5091216;56;1134616;-72
2021/04/22 04:54:49;;;;;;;11.13;2.10;;;;;;;4.85;57.13;100511.66;5018188;56;1136259;-71
2021/04/22 04:59:55;;;;;;;14.17;3.30;;;;;;;4.79;57.34;100517.22;5052467;56;1136852;-71
2021/04/22 05:05:01;;;;;;;23.00;3.87;;;;;;;4.81;57.58;100519.30;5054118;56;1136950;-71
2021/04/22 05:10:09;;;;;;;15.80;3.27;;;;;;;4.81;57.70;100512.28;5030988;56;1140031;-71
2021/04/22 05:15:16;;;;;;;15.43;4.35;;;;;;;4.87;57.96;100520.29;5073718;56;1136693;-71
2021/04/22 05:20:21;;;;;;;11.08;2.80;;;;;;;4.87;57.93;100519.83;5055824;57;1136742;-72
2021/04/22 05:25:28;;;;;;;9.50;2.37;;;;;;;4.92;57.98;100520.41;5026479;56;1136716;-70
2021/04/22 05:30:34;;;;;;;13.10;3.93;;;;;;;5.03;57.75;100525.55;5087386;57;1134630;-71
2021/04/22 05:35:40;;;;;;;9.03;2.57;;;;;;;5.08;57.60;100530.05;5092758;57;1136710;-71
2021/04/22 05:40:46;;;;;;;14.40;2.60;;;;;;;5.12;57.66;100530.27;5095785;57;1134577;-72
2021/04/22 05:45:51;;;;;;;14.60;2.60;;;;;;;5.15;57.32;100541.45;5064924;56;1136717;-71
2021/04/22 05:50:57;;;;;;;13.80;2.20;;;;;;;5.25;57.84;100545.70;5013924;57;1136369;-71
2021/04/22 05:56:03;;;;;;;15.27;2.73;;;;;;;5.38;57.61;100545.41;5013950;57;1136362;-71
2021/04/22 06:01:09;;;;;;;9.87;2.53;;;;;;;5.40;57.17;100543.55;5014187;57;1136901;-71
2021/04/22 06:06:15;;;;;;;8.63;1.40;;;;;;;5.39;56.49;100547.09;5012294;57;1135907;-73
2021/04/22 06:11:20;;;;;;;14.50;3.03;;;;;;;5.41;56.90;100547.02;5014003;57;1134636;-74
2021/04/22 06:16:27;;;;;;;11.63;1.70;;;;;;;5.48;57.25;100543.98;5011385;57;1136953;-73
2021/04/22 06:21:33;;;;;;;9.97;2.33;;;;;;;5.58;56.91;100549.08;5013979;57;1136959;-74
2021/04/22 06:26:39;;;;;;;17.40;3.47;;;;;;;5.70;56.66;100542.74;5013700;57;1134795;-74
2021/04/22 06:31:45;;;;;;;11.83;3.05;;;;;;;5.84;57.09;100553.30;5013835;57;1136842;-74
2021/04/22 06:36:51;;;;;;;18.30;3.37;;;;;;;5.93;57.07;100561.53;5014044;57;1136977;-74
2021/04/22 06:41:57;;;;;;;8.63;2.50;;;;;;;5.94;56.56;100556.67;5004950;57;1136911;-74
2021/04/22 06:47:02;;;;;;;12.53;3.00;;;;;;;6.08;56.50;100553.70;4996818;57;1134364;-74
2021/04/22 06:52:08;;;;;;;7.93;2.03;;;;;;;6.11;56.34;100564.84;5017917;57;1136754;-74
2021/04/22 06:57:16;;;;;;;14.43;2.53;;;;;;;6.19;56.45;100562.64;5070390;57;1143846;-74
2021/04/22 07:02:22;;;;;;;11.77;2.53;;;;;;;6.19;56.00;100570.52;5055436;57;1136701;-74
2021/04/22 07:07:28;;;;;;;19.63;3.50;;;;;;;6.21;56.87;100572.59;5079451;56;1136502;-74
2021/04/22 07:12:33;;;;;;;7.77;1.60;;;;;;;6.29;56.46;100571.66;5093446;57;1136750;-74
2021/04/22 07:17:40;;;;;;;6.73;3.37;;;;;;;6.39;55.90;100563.25;5098259;57;1134560;-74
2021/04/22 07:22:46;;;;;;;13.63;2.70;;;;;;;6.45;56.13;100569.43;5092992;56;1134616;-71
2021/04/22 07:27:52;;;;;;;10.90;3.40;;;;;;;6.63;56.59;100573.59;5042660;57;1136473;-71
2021/04/22 07:32:58;;;;;;;6.73;2.20;;;;;;;6.74;55.33;100569.83;5093810;56;1136710;-71
2021/04/22 07:38:05;;;;;;;14.07;3.07;;;;;;;6.80;55.45;100569.94;5096107;56;1134247;-71
2021/04/22 07:43:13;;;;;;;10.70;2.27;;;;;;;6.93;55.55;100570.88;5078355;56;1136351;-72
2021/04/22 07:48:18;;;;;;;17.00;3.73;;;;;;;7.14;55.21;100580.55;5078541;56;1136566;-72
2021/04/22 07:53:24;;;;;;;8.60;1.98;;;;;;;7.41;54.33;100572.22;5014914;57;1136693;-72
2021/04/22 07:58:33;;;;;;;12.13;2.90;;;;;;;7.52;55.15;100584.22;5014683;57;1134404;-74
2021/04/22 08:03:37;;;;;;;8.93;1.87;;;;;;;7.71;52.91;100578.63;5014669;57;1136199;-73
2021/04/22 08:08:43;;;;;;;11.90;2.53;;;;;;;7.68;52.49;100583.61;5014542;57;1134376;-74
2021/04/22 08:13:48;;;;;;;11.63;2.97;;;;;;;7.76;53.45;100593.19;5014728;57;1136177;-74
2021/04/22 08:18:54;;;;;;;12.63;2.80;;;;;;;7.91;53.26;100603.20;5014987;57;1136450;-74
2021/04/22 08:24:00;;;;;;;10.07;2.60;;;;;;;7.89;53.26;100596.33;5014839;57;1136692;-72
2021/04/22 08:29:07;;;;;;;19.60;3.23;;;;;;;8.08;52.67;100588.45;5014620;57;1136367;-72
2021/04/22 08:34:12;;;;;;;12.60;3.20;;;;;;;8.20;51.82;100592.53;5011292;57;1142517;-74
2021/04/22 08:39:18;;;;;;;21.25;2.92;;;;;;;8.29;52.12;100596.70;5014823;57;1136634;-74
2021/04/22 08:44:24;;;;;;;12.37;2.73;;;;;;;8.33;52.09;100596.06;5014962;57;1136727;-74
2021/04/22 08:49:30;;;;;;;14.93;3.57;;;;;;;8.30;51.91;100591.80;5014509;57;1136936;-73
2021/04/22 08:54:35;;;;;;;11.87;2.70;;;;;;;8.37;52.05;100594.44;5049937;56;1136734;-74
2021/04/22 08:59:42;;;;;;;9.60;2.73;;;;;;;8.51;51.63;100599.25;5054574;57;1136754;-74
2021/04/22 09:04:48;;;;;;;12.33;3.20;;;;;;;8.62;52.17;100592.30;5091560;56;1134563;-74
2021/04/22 09:09:54;;;;;;;7.33;2.23;;;;;;;8.78;51.58;100594.25;5087771;56;1136648;-74
2021/04/22 09:15:12;;;;;;;6.87;2.43;;;;;;;8.89;50.01;100593.50;5085478;56;1134852;-74
2021/04/22 09:20:23;;;;;;;9.55;2.80;;;;;;;9.00;51.10;100598.90;5053059;56;1134580;-74
2021/04/22 09:25:29;;;;;;;9.97;2.77;;;;;;;9.03;49.99;100599.97;5075844;56;1134617;-72
2021/04/22 09:30:40;;;;;;;7.07;2.50;;;;;;;9.05;49.74;100598.08;5088038;56;1134677;-71
2021/04/22 09:35:45;;;;;;;13.33;2.90;;;;;;;9.05;49.74;100598.08;5079428;57;1134701;-71
2021/04/22 09:40:51;;;;;;;15.87;2.70;;;;;;;9.16;50.73;100598.67;5094342;56;1136340;-71
2021/04/22 09:45:56;;;;;;;3.67;1.83;;;;;;;9.32;48.84;100599.23;5096871;57;1138757;-70
2021/04/22 09:51:11;;;;;;;4.50;1.67;;;;;;;9.45;48.43;100597.91;5083597;56;1136235;-72
2021/04/22 09:56:13;;;;;;;8.73;2.40;;;;;;;9.55;49.42;100606.85;5050396;56;1136461;-75
2021/04/22 10:01:23;;;;;;;9.27;2.10;;;;;;;9.63;49.85;100600.53;5045656;56;1136797;-75
2021/04/22 10:06:41;;;;;;;9.33;2.87;;;;;;;9.62;48.71;100600.66;5035969;56;1136878;-75
2021/04/22 10:11:52;;;;;;;7.23;2.10;;;;;;;9.49;47.97;100608.59;5055589;56;1136651;-72
2021/04/22 10:16:57;;;;;;;8.60;2.70;;;;;;;9.52;47.52;100599.98;5044238;56;1136774;-74
2021/04/22 10:22:03;;;;;;;7.23;2.90;;;;;;;9.46;48.05;100604.88;5060881;56;1137017;-75
2021/04/22 10:27:09;;;;;;;9.23;3.10;;;;;;;9.33;48.51;100608.84;5014202;57;1136721;-72
2021/04/22 10:32:15;;;;;;;8.03;2.33;;;;;;;9.37;49.71;100601.56;5035280;56;1136790;-72
2021/04/22 10:37:24;;;;;;;8.30;1.93;;;;;;;9.34;48.42;100605.25;5060531;57;1136850;-75
2021/04/22 10:42:30;;;;;;;6.27;2.23;;;;;;;9.34;48.09;100607.89;5055204;56;1136699;-71
2021/04/22 10:47:36;;;;;;;12.83;2.60;;;;;;;9.57;48.61;100597.03;4956849;57;1136558;-74
2021/04/22 10:52:49;;;;;;;9.58;1.75;;;;;;;9.77;47.55;100607.48;5036985;56;1138610;-73
2021/04/22 10:58:00;;;;;;;10.20;2.40;;;;;;;9.64;47.59;100590.80;5054242;57;1136482;-74
2021/04/22 11:03:05;;;;;;;4.67;1.27;;;;;;;9.62;47.87;100595.38;5066276;56;1138616;-74
2021/04/22 11:08:12;;;;;;;8.18;1.82;;;;;;;9.42;47.84;100596.33;5091286;57;1136550;-75
2021/04/22 11:13:30;;;;;;;6.57;2.30;;;;;;;9.26;49.19;100596.20;5077480;56;1136753;-74
2021/04/22 11:18:45;;;;;;;7.27;2.20;;;;;;;9.28;49.02;100592.99;5072175;57;1136692;-74
2021/04/22 11:23:52;;;;;;;7.20;1.40;;;;;;;9.25;48.52;100610.36;5018343;56;1136764;-75
2021/04/22 11:29:15;;;;;;;5.23;1.30;;;;;;;8.98;49.59;100621.90;5089078;56;1134447;-74
2021/04/22 11:34:35;;;;;;;8.63;1.70;;;;;;;8.75;49.14;100630.05;5044677;57;1134513;-75
2021/04/22 11:39:41;;;;;;;2.40;0.97;;;;;;;8.39;53.79;100631.23;5094038;57;1134837;-75
2021/04/22 11:44:51;;;;;;;6.80;2.33;;;;;;;8.43;57.10;100624.80;5065448;56;1134112;-73
2021/04/22 11:50:12;;;;;;;8.23;2.37;;;;;;;8.80;57.41;100618.73;5084934;57;1134300;-73
2021/04/22 11:55:24;;;;;;;8.90;1.92;;;;;;;9.34;54.06;100603.09;5032896;56;1137996;-72
2021/04/22 12:00:40;;;;;;;7.70;1.47;;;;;;;9.74;54.29;100600.61;5032580;57;1136833;-73
2021/04/22 12:05:46;;;;;;;6.03;1.97;;;;;;;10.07;50.48;100585.41;5036941;56;1136750;-74
2021/04/22 12:10:52;;;;;;;12.60;2.30;;;;;;;10.54;47.74;100586.30;5032599;57;1138730;-73
2021/04/22 12:16:04;;;;;;;13.77;2.00;;;;;;;10.67;46.87;100580.44;5028668;56;1140894;-74
2021/04/22 12:21:17;;;;;;;5.20;1.87;;;;;;;10.37;47.68;100602.59;5045311;57;1141024;-72
2021/04/22 12:26:26;;;;;;;11.08;1.15;;;;;;;10.16;46.89;100604.53;5048997;56;1138710;-73
2021/04/22 12:31:46;;;;;;;0.80;0.60;;;;;;;9.79;51.33;100676.86;5021426;56;1140822;-72
2021/04/22 12:36:58;;;;;;;4.77;1.57;;;;;;;8.38;56.35;100683.57;5054224;56;1134658;-74
2021/04/22 12:42:17;;;;;;;7.00;1.53;;;;;;;7.63;58.20;100657.25;5041735;56;1134417;-71
2021/04/22 12:47:35;;;;;;;3.90;1.00;;;;;;;7.33;60.25;100670.03;5038224;56;1134735;-72
2021/04/22 12:52:42;;;;;;;2.65;0.68;;;;;;;7.60;61.38;100662.70;5021830;57;1134623;-72
2021/04/22 12:57:58;;;;;;;3.70;1.15;;;;;;;7.94;57.60;100655.67;5047954;56;1134839;-74
2021/04/22 13:03:17;;;;;;;3.80;0.73;;;;;;;8.54;58.24;100653.09;5055036;57;1134589;-75
2021/04/22 13:08:24;;;;;;;3.47;1.30;;;;;;;9.15;52.84;100649.75;5046408;57;1134598;-73
2021/04/22 13:13:34;;;;;;;3.26;1.18;;;;;;;9.61;51.59;100652.63;5032854;56;1136654;-74
2021/04/22 13:18:44;;;;;;;7.87;1.77;;;;;;;9.95;49.55;100647.53;5013748;56;1136252;-75
2021/04/22 13:23:50;;;;;;;8.27;2.00;;;;;;;10.13;47.92;100640.42;5043318;56;1136308;-74
2021/04/22 13:29:12;;;;;;;4.27;1.00;;;;;;;10.37;46.11;100650.19;5045760;56;1138362;-76
2021/04/22 13:34:23;;;;;;;6.23;0.93;;;;;;;10.07;47.54;100646.66;5034170;56;1141222;-75
2021/04/22 13:39:35;;;;;;;9.95;1.52;;;;;;;10.01;47.21;100647.94;5041499;56;1138485;-76
2021/04/22 13:44:42;;;;;;;16.93;1.60;;;;;;;10.15;46.16;100646.92;5033665;57;1138600;-74
2021/04/22 13:49:51;;;;;;;13.47;2.30;;;;;;;10.38;44.45;100641.30;5061992;56;1140540;-74
2021/04/22 13:55:03;;;;;;;5.57;0.90;;;;;;;10.51;45.74;100648.67;5063546;57;1140679;-75
2021/04/22 14:00:13;;;;;;;0.47;0.47;;;;;;;10.20;45.69;100669.46;5012000;57;1138645;-73
2021/04/22 14:05:23;;;;;;;1.45;0.82;;;;;;;9.53;45.93;100672.12;4984796;58;1138818;-77
2021/04/22 14:10:36;;;;;;;1.02;0.57;;;;;;;9.08;45.60;100662.52;4964843;58;1136590;-74
2021/04/22 14:15:41;;;;;;;2.37;1.30;;;;;;;9.10;46.25;100672.96;4980860;58;1134420;-73
2021/04/22 14:20:48;;;;;;;2.80;1.10;;;;;;;9.43;44.30;100668.45;4954438;58;1136649;-76
2021/04/22 14:25:54;;;;;;;1.80;0.67;;;;;;;9.80;43.73;100671.94;4983422;58;1136651;-75
2021/04/22 14:31:00;;;;;;;1.67;1.00;;;;;;;10.09;43.15;100665.86;4979041;58;1136582;-74
2021/04/22 14:36:08;;;;;;;4.87;1.20;;;;;;;10.17;44.95;100678.90;4964068;58;1139040;-75
2021/04/22 14:41:14;;;;;;;4.53;0.80;;;;;;;10.25;45.24;100681.47;4959490;58;1138903;-75
2021/04/22 14:46:20;;;;;;;7.33;0.60;;;;;;;10.19;45.38;100671.73;4975860;58;1138488;-75
2021/04/22 14:51:26;;;;;;;4.92;1.25;;;;;;;10.01;46.82;100669.08;4984180;58;1138616;-75
2021/04/22 14:56:31;;;;;;;2.25;0.45;;;;;;;10.06;45.42;100672.72;4980187;58;1138808;-75
2021/04/22 15:01:38;;;;;;;5.33;1.67;;;;;;;10.35;40.77;100678.06;4982046;57;1138464;-74
2021/04/22 15:06:44;;;;;;;3.77;1.90;;;;;;;10.53;40.46;100679.81;5035745;56;1138564;-74
2021/04/22 15:11:50;;;;;;;12.13;3.12;;;;;;;10.72;40.43;100679.25;5044123;57;1138500;-76
2021/04/22 15:16:55;;;;;;;8.73;1.80;;;;;;;10.82;41.67;100685.55;5054527;57;1140391;-73
2021/04/22 15:22:02;;;;;;;2.10;1.13;;;;;;;10.88;41.29;100687.23;5052466;58;1138356;-73
2021/04/22 15:27:14;;;;;;;7.40;1.93;;;;;;;10.95;41.34;100688.95;5038268;56;1138925;-73
2021/04/22 15:32:19;;;;;;;40.97;16.90;;;;;;;10.91;39.94;100687.48;5055385;57;1139005;-75
2021/04/22 15:37:25;;;;;;;92.27;42.80;;;;;;;10.93;40.87;100688.22;5053779;56;1142961;-75
2021/04/22 15:42:31;;;;;;;21.25;10.30;;;;;;;11.05;40.71;100694.37;5036957;57;1142940;-73
2021/04/22 15:47:37;;;;;;;12.30;5.97;;;;;;;11.00;40.75;100701.33;5019749;56;1143003;-74
2021/04/22 15:52:43;;;;;;;17.77;4.80;;;;;;;10.88;41.91;100705.76;5027617;56;1140551;-74
2021/04/22 15:57:50;;;;;;;12.87;2.73;;;;;;;10.92;42.57;100713.84;5005674;56;1140840;-76
2021/04/22 16:02:56;;;;;;;8.27;2.90;;;;;;;10.54;44.05;100732.56;5024266;56;1140677;-75
2021/04/22 16:08:04;;;;;;;8.57;2.93;;;;;;;10.54;44.05;100732.56;5096206;56;1138462;-76
2021/04/22 16:13:10;;;;;;;22.53;9.33;;;;;;;10.07;43.36;100744.44;5089917;57;1138428;-74
2021/04/22 16:18:16;;;;;;;6.20;2.37;;;;;;;9.66;45.31;100716.50;5086779;57;1140412;-72
2021/04/22 16:23:22;;;;;;;6.30;2.63;;;;;;;9.31;45.20;100712.39;5066535;56;1136746;-74
2021/04/22 16:28:28;;;;;;;14.33;5.75;;;;;;;9.22;45.95;100728.84;5062827;56;1134834;-74
2021/04/22 16:33:35;;;;;;;10.88;4.85;;;;;;;9.11;46.12;100741.46;5070777;57;1136726;-72
2021/04/22 16:38:41;;;;;;;6.33;1.97;;;;;;;9.07;46.29;100762.87;5057732;56;1136904;-75
2021/04/22 16:43:46;;;;;;;3.07;2.10;;;;;;;9.15;45.89;100726.27;5061330;57;1134686;-72
2021/04/22 16:48:52;;;;;;;5.37;1.77;;;;;;;9.28;45.33;100737.67;5064002;57;1134689;-74
2021/04/22 16:53:58;;;;;;;4.13;1.53;;;;;;;9.47;46.27;100736.75;5064292;57;1134659;-74
2021/04/22 16:59:07;;;;;;;101.70;30.50;;;;;;;9.63;45.89;100735.67;5050261;57;1136794;-74
2021/04/22 17:04:14;;;;;;;5.50;2.60;;;;;;;9.65;45.61;100739.91;5052998;57;1142455;-73
2021/04/22 17:09:19;;;;;;;13.13;3.33;;;;;;;9.62;45.28;100735.34;5045070;56;1136812;-74
2021/04/22 17:14:26;;;;;;;10.45;1.90;;;;;;;9.64;44.31;100738.69;4960442;57;1138842;-73
2021/04/22 17:19:32;;;;;;;6.35;2.70;;;;;;;9.61;42.64;100742.89;5014908;58;1138843;-72
2021/04/22 17:24:38;;;;;;;14.63;3.87;;;;;;;9.56;42.50;100750.28;5054370;56;1136750;-74
2021/04/22 17:29:44;;;;;;;13.07;4.17;;;;;;;9.54;43.25;100762.27;5092238;56;1138783;-74
2021/04/22 17:34:49;;;;;;;13.97;3.80;;;;;;;9.56;43.46;100767.44;5091550;56;1139060;-75
2021/04/22 17:39:55;;;;;;;10.77;3.67;;;;;;;9.47;42.78;100765.78;5083629;56;1138807;-74
2021/04/22 17:45:00;;;;;;;10.70;3.90;;;;;;;9.36;43.16;100777.56;5079014;57;1138672;-75
2021/04/22 17:50:07;;;;;;;11.37;2.57;;;;;;;9.21;42.92;100777.30;5078582;55;1136664;-74
2021/04/22 17:55:14;;;;;;;10.90;2.60;;;;;;;9.09;43.48;100788.20;5073198;56;1136459;-74
2021/04/22 18:00:25;;;;;;;11.03;2.10;;;;;;;9.05;44.16;100796.42;5084781;56;1137089;-77
2021/04/22 18:05:33;;;;;;;11.08;3.85;;;;;;;8.97;44.25;100800.06;5077431;56;1136812;-77
2021/04/22 18:10:38;;;;;;;18.02;6.05;;;;;;;8.87;44.61;100806.87;5078886;56;1136770;-74
2021/04/22 18:15:45;;;;;;;11.53;4.20;;;;;;;8.83;45.01;100812.00;5079078;56;1136750;-74
2021/04/22 18:20:50;;;;;;;5.77;2.30;;;;;;;8.70;45.20;100812.80;5079107;56;1136967;-74
2021/04/22 18:25:58;;;;;;;6.90;2.73;;;;;;;8.59;45.63;100819.22;5076653;56;1134697;-73
2021/04/22 18:31:05;;;;;;;8.98;3.80;;;;;;;8.51;45.93;100837.80;5074762;56;1134639;-77
2021/04/22 18:36:11;;;;;;;9.33;3.40;;;;;;;8.42;46.06;100839.22;5062689;56;1134639;-76
2021/04/22 18:41:19;;;;;;;11.80;3.27;;;;;;;8.33;46.30;100839.34;5085788;56;1134581;-76
2021/04/22 18:46:25;;;;;;;7.03;2.33;;;;;;;8.12;46.80;100841.96;5086488;57;1143685;-75
2021/04/22 18:51:30;;;;;;;11.80;2.98;;;;;;;8.12;46.80;100841.96;5073806;56;1135063;-74
2021/04/22 18:56:36;;;;;;;15.48;3.52;;;;;;;8.12;47.02;100861.25;5094544;56;1136985;-73
2021/04/22 19:01:42;;;;;;;18.80;6.40;;;;;;;8.07;47.03;100869.93;5072635;56;1136957;-74
2021/04/22 19:06:47;;;;;;;24.30;10.80;;;;;;;8.07;47.20;100870.40;5097077;56;1136744;-73
2021/04/22 19:11:53;;;;;;;20.53;7.77;;;;;;;8.00;47.35;100865.97;5065750;57;1139131;-76
2021/04/22 19:16:59;;;;;;;15.60;5.27;;;;;;;7.99;47.46;100870.00;5066057;56;1136714;-77
2021/04/22 19:22:05;;;;;;;7.23;3.47;;;;;;;7.98;47.62;100882.33;5066138;57;1136643;-73
2021/04/22 19:27:11;;;;;;;12.93;3.50;;;;;;;7.92;47.79;100882.72;5066423;56;1134506;-74
2021/04/22 19:32:17;;;;;;;15.43;4.07;;;;;;;7.80;47.78;100883.44;5068262;57;1136761;-77
2021/04/22 19:37:32;;;;;;;17.77;5.00;;;;;;;7.71;48.00;100885.31;5067976;56;1136701;-74
2021/04/22 19:42:37;;;;;;;13.40;4.05;;;;;;;7.63;48.13;100891.52;5068196;56;1136631;-74
2021/04/22 19:47:44;;;;;;;18.30;6.33;;;;;;;7.46;48.09;100901.73;5067590;56;1136931;-76
2021/04/22 19:52:49;;;;;;;21.33;8.37;;;;;;;7.26;48.46;100904.66;5068081;56;1136745;-77
2021/04/22 19:57:55;;;;;;;18.97;7.53;;;;;;;7.18;48.84;100906.90;5068007;56;1136707;-75
2021/04/22 20:03:01;;;;;;;20.00;7.20;;;;;;;7.16;49.07;100908.77;5087695;57;1136721;-75
2021/04/22 20:08:07;;;;;;;14.18;5.55;;;;;;;7.05;49.19;100918.09;5061327;56;1136691;-72
2021/04/22 20:13:17;;;;;;;7.53;4.17;;;;;;;7.00;49.51;100926.73;5067752;57;1136976;-74
2021/04/22 20:18:23;;;;;;;16.20;4.10;;;;;;;6.91;49.41;100932.48;5063843;57;1134619;-74
2021/04/22 20:23:29;;;;;;;9.60;3.45;;;;;;;6.82;49.44;100934.79;5067764;56;1136761;-72
2021/04/22 20:28:35;;;;;;;15.12;3.68;;;;;;;6.81;49.73;100930.00;5068079;57;1134689;-76
2021/04/22 20:33:40;;;;;;;9.25;2.77;;;;;;;6.81;49.73;100934.41;5082668;57;1136670;-76
2021/04/22 20:38:48;;;;;;;8.37;3.10;;;;;;;6.79;49.66;100941.52;5042583;56;1134606;-73
2021/04/22 20:43:54;;;;;;;11.33;3.10;;;;;;;6.76;49.75;100932.48;5065685;57;1134549;-74
2021/04/22 20:49:00;;;;;;;13.90;3.90;;;;;;;6.67;49.97;100934.70;5048892;56;1137050;-73
2021/04/22 20:54:06;;;;;;;16.93;4.77;;;;;;;6.63;50.22;100944.98;5022745;56;1136673;-70
2021/04/22 20:59:12;;;;;;;13.00;3.90;;;;;;;6.53;50.47;100938.55;5004661;58;1136885;-74
2021/04/22 21:04:18;;;;;;;6.93;3.60;;;;;;;6.46;50.67;100945.05;5045038;57;1136722;-75
2021/04/22 21:09:27;;;;;;;11.67;4.57;;;;;;;6.40;51.08;100942.77;5043432;56;1134830;-71
2021/04/22 21:14:32;;;;;;;13.53;4.00;;;;;;;6.32;51.30;100948.41;5047655;56;1136948;-70
2021/04/22 21:19:38;;;;;;;17.27;4.58;;;;;;;6.23;51.93;100953.32;5073577;57;1136480;-71
2021/04/22 21:24:44;;;;;;;13.43;4.23;;;;;;;6.10;52.21;100964.94;5064575;56;1136398;-71
2021/04/22 21:29:50;;;;;;;8.97;4.57;;;;;;;6.01;52.45;100970.64;5087066;56;1136886;-72
2021/04/22 21:34:56;;;;;;;8.00;3.30;;;;;;;5.95;52.84;100969.20;5087159;56;1134587;-72
2021/04/22 21:40:02;;;;;;;18.90;5.80;;;;;;;5.93;53.26;100984.18;5087397;56;1134604;-69
2021/04/22 21:45:10;;;;;;;14.87;5.17;;;;;;;5.92;53.51;100983.79;5086749;56;1136719;-70
2021/04/22 21:50:17;;;;;;;10.67;4.83;;;;;;;5.90;53.74;100986.95;5017493;57;1136806;-72
2021/04/22 21:55:23;;;;;;;19.73;4.70;;;;;;;5.92;53.90;100998.23;5019661;58;1136684;-70
2021/04/22 22:00:30;;;;;;;17.25;5.20;;;;;;;5.97;54.05;100999.28;5000073;58;1144361;-72
2021/04/22 22:05:35;;;;;;;14.93;3.98;;;;;;;6.01;53.99;100999.52;5000381;58;1136720;-72
2021/04/22 22:10:41;;;;;;;11.20;4.33;;;;;;;5.98;53.99;100998.36;5000359;58;1136772;-70
2021/04/22 22:15:47;;;;;;;13.40;4.13;;;;;;;5.92;54.12;101000.86;5052796;57;1136695;-73
2021/04/22 22:20:53;;;;;;;11.37;4.10;;;;;;;5.87;54.35;100996.26;5065170;57;1136702;-72
2021/04/22 22:25:59;;;;;;;10.43;3.27;;;;;;;5.79;54.67;101000.20;5064678;57;1136425;-70
2021/04/22 22:31:06;;;;;;;6.90;3.50;;;;;;;5.66;54.96;101002.56;5064826;57;1136242;-70
2021/04/22 22:36:14;;;;;;;10.50;3.60;;;;;;;5.66;55.08;101003.88;5064628;57;1134851;-72
2021/04/22 22:41:19;;;;;;;13.10;4.93;;;;;;;5.62;55.23;101015.48;5065384;57;1136254;-70
2021/04/22 22:46:25;;;;;;;7.73;3.60;;;;;;;5.55;55.50;101016.69;5065834;57;1136658;-72
2021/04/22 22:51:32;;;;;;;7.72;3.70;;;;;;;5.47;55.86;101014.45;5068259;56;1134178;-71
2021/04/22 22:56:38;;;;;;;8.00;3.47;;;;;;;5.41;56.05;101018.67;5070855;57;1134097;-71
2021/04/22 23:01:44;;;;;;;9.10;3.77;;;;;;;5.33;56.81;101021.28;5070688;57;1134337;-70
2021/04/22 23:06:50;;;;;;;6.30;3.20;;;;;;;5.19;57.67;101011.00;5070593;57;1134590;-72
2021/04/22 23:11:55;;;;;;;8.45;3.52;;;;;;;5.16;57.77;101016.84;5070283;57;1134520;-72
2021/04/22 23:17:02;;;;;;;8.30;3.70;;;;;;;5.11;58.23;101026.69;5083356;57;1134465;-72
2021/04/22 23:22:08;;;;;;;11.70;4.20;;;;;;;5.06;58.72;101027.34;5088192;57;1134511;-72